Flight Track Log - Related Links

Times and Time Zones

All times are in EDT time to prevent confusion due to time zone crossing. See the EJA370 flight status page for this flight to view local times or setup timezone preferences in your user account.

Time Position Orientation Groundspeed Altitude Reporting Facility
EDT Latitude Longitude Course Direction KTS MPH feet Rate Location/Type
Sat 07:30:58 PM 40.0833 -75.0167 242° Southwest 168 193 600  Level Philadelphia TRACON
Sat 07:32:11 PM 40.0500 -75.1000 242° Southwest 225 259 3,700 1,534 Climbing Philadelphia TRACON
Sat 07:33:11 PM 40.0333 -75.2000 258° West 253 291 4,000 950 Climbing Philadelphia TRACON
Sat 07:34:11 PM 40.0000 -75.2667 237° Southwest 257 296 5,600 2,209 Climbing Philadelphia TRACON
Sat 07:35:54 PM 39.9233 -75.3833 241° Southwest 258 297 10,000 1,610 Climbing New York Center
Sat 07:36:55 PM 39.8767 -75.4533 229° Southwest 258 297 10,000  Level New York Center
Sat 07:37:55 PM 39.8836 -75.5403 276° West 227 261 10,000 51 Level New York Center
Sat 07:38:53 PM 39.8900 -75.6408 275° West 284 327 10,100 814 Climbing New York Center
Sat 07:39:53 PM 39.9014 -75.7689 277° West 328 377 11,600 2,508 Climbing New York Center
Sat 07:40:55 PM 39.9094 -75.8722 276° West 334 384 15,200 2,200 Climbing New York Center
Sat 07:41:53 PM 39.9200 -76.0083 276° West 334 384 16,000 403 Climbing New York Center
Sat 07:42:54 PM 39.9297 -76.1175 277° West 339 390 16,000  Level New York Center
Sat 07:43:54 PM 39.9400 -76.2564 276° West 351 404 16,000  Level New York Center
Sat 07:44:53 PM 39.9494 -76.3681 276° West 356 410 16,000  Level New York Center
Sat 07:45:53 PM 39.9592 -76.5097 275° West 351 404 16,000  Level New York Center
Sat 07:46:55 PM 39.9683 -76.6217 276° West 351 404 16,000  Level New York Center
Sat 07:47:54 PM 39.9761 -76.7578 274° West 351 404 16,000  Level New York Center
Sat 07:48:54 PM 39.9828 -76.8722 274° West 351 404 16,000  Level New York Center
Sat 07:49:55 PM 39.9928 -77.0003 276° West 345 397 16,000 -298 Level New York Center
Sat 07:50:55 PM 39.9997 -77.1039 275° West 326 375 15,400 -1,322 Descending New York Center
Sat 07:51:53 PM 40.0067 -77.2078 275° West 282 325 13,400 -2,269 Descending New York Center
Sat 07:52:54 PM 40.0125 -77.2894 275° West 263 303 10,900 -2,250 Descending New York Center
Sat 07:53:53 PM 40.0197 -77.3878 276° West 258 297 8,900 -713 Descending New York Center
Sat 07:55:34 PM 40.0328 -77.5381 277° West 265 305 9,000 38 Climbing Cleveland Center
Sat 07:56:33 PM 40.0372 -77.6356 273° West 253 291 9,000  Level Cleveland Center
Sat 07:57:34 PM 40.0414 -77.7111 274° West 259 298 9,000  Level Cleveland Center
Sat 07:58:34 PM 40.0478 -77.8031 275° West 254 292 9,000  Level Cleveland Center
Sat 07:59:34 PM 40.0542 -77.8897 276° West 254 292 9,000 -900 Level Cleveland Center
Sat 08:00:34 PM 40.0606 -77.9925 275° West 254 292 7,200 -2,050 Descending Cleveland Center
Sat 08:01:34 PM 40.0436 -78.0717 254° West 244 281 4,900 -1,600 Descending Cleveland Center
Sat 08:02:34 PM 40.0283 -78.1319 252° West 219 252 4,000 -450 Descending Cleveland Center
Sat 08:03:34 PM 40.0111 -78.2058 253° West 212 244 4,000  Level Cleveland Center
Sat 08:04:13 PM 39.9806 -78.2422 222° Southwest 191 220 4,000  Level Cleveland Center
Sat 08:04:34 PM 39.9642 -78.2536 208° Southwest 206 237 4,000 -74 Level Cleveland Center
Sat 08:05:34 PM 39.9569 -78.3053 260° West 189 217 3,900 -100 Descending Cleveland Center
Sat 08:07:00 PM 40.0339 -78.4035 316° Northwest  Level FlightAware Approximate
Sat 08:14:00 PM 40.0833 -78.5000 270° West  Level FlightAware Approximate
Sat 08:15:00 PM 40.0861 -78.5135 270° West  Level Estimated
Sat 08:16:00 PM 40.0861 -78.5135 270° West  Level Estimated

Login

Don't have an account? Register now (free) for customized features, flight alerts, and more!